sensor_id;sensor_type;location;lat;lon;timestamp;P1;durP1;ratioP1;P2;durP2;ratioP2
30647;SDS011;17683;53.360;9.736;2024-02-28T00:00:46;33.05;;;23.08;;
30647;SDS011;17683;53.360;9.736;2024-02-28T00:03:12;35.97;;;24.40;;
30647;SDS011;17683;53.360;9.736;2024-02-28T00:05:38;38.22;;;25.23;;
30647;SDS011;17683;53.360;9.736;2024-02-28T00:08:04;36.35;;;24.27;;
30647;SDS011;17683;53.360;9.736;2024-02-28T00:10:30;34.75;;;23.65;;
30647;SDS011;17683;53.360;9.736;2024-02-28T00:12:57;35.20;;;22.63;;
30647;SDS011;17683;53.360;9.736;2024-02-28T00:15:23;33.17;;;22.95;;
30647;SDS011;17683;53.360;9.736;2024-02-28T00:17:51;38.17;;;25.48;;
30647;SDS011;17683;53.360;9.736;2024-02-28T00:20:18;38.67;;;24.77;;
30647;SDS011;17683;53.360;9.736;2024-02-28T00:22:44;35.63;;;23.08;;
30647;SDS011;17683;53.360;9.736;2024-02-28T00:25:10;39.10;;;24.60;;
30647;SDS011;17683;53.360;9.736;2024-02-28T00:27:36;37.90;;;25.40;;
30647;SDS011;17683;53.360;9.736;2024-02-28T00:30:02;38.53;;;24.98;;
30647;SDS011;17683;53.360;9.736;2024-02-28T00:32:31;37.55;;;24.63;;
30647;SDS011;17683;53.360;9.736;2024-02-28T00:34:57;37.40;;;24.05;;
30647;SDS011;17683;53.360;9.736;2024-02-28T00:37:23;37.55;;;24.02;;
30647;SDS011;17683;53.360;9.736;2024-02-28T00:39:49;38.33;;;24.55;;
30647;SDS011;17683;53.360;9.736;2024-02-28T00:42:15;34.63;;;22.63;;
30647;SDS011;17683;53.360;9.736;2024-02-28T00:44:41;35.97;;;24.23;;
30647;SDS011;17683;53.360;9.736;2024-02-28T00:47:08;36.50;;;23.25;;
30647;SDS011;17683;53.360;9.736;2024-02-28T00:49:34;33.95;;;22.42;;
30647;SDS011;17683;53.360;9.736;2024-02-28T00:52:00;32.78;;;21.85;;
30647;SDS011;17683;53.360;9.736;2024-02-28T00:54:26;35.40;;;23.70;;
30647;SDS011;17683;53.360;9.736;2024-02-28T00:56:52;38.78;;;26.45;;
30647;SDS011;17683;53.360;9.736;2024-02-28T00:59:17;35.88;;;23.23;;
30647;SDS011;17683;53.360;9.736;2024-02-28T01:01:43;37.97;;;23.42;;
30647;SDS011;17683;53.360;9.736;2024-02-28T01:04:09;39.22;;;24.67;;
30647;SDS011;17683;53.360;9.736;2024-02-28T01:06:35;35.08;;;22.73;;
30647;SDS011;17683;53.360;9.736;2024-02-28T01:09:00;36.17;;;22.92;;
30647;SDS011;17683;53.360;9.736;2024-02-28T01:11:26;35.88;;;22.77;;
30647;SDS011;17683;53.360;9.736;2024-02-28T01:13:52;36.85;;;24.58;;
30647;SDS011;17683;53.360;9.736;2024-02-28T01:16:18;36.80;;;23.45;;
30647;SDS011;17683;53.360;9.736;2024-02-28T01:18:43;36.92;;;22.63;;
30647;SDS011;17683;53.360;9.736;2024-02-28T01:21:09;37.28;;;22.75;;
30647;SDS011;17683;53.360;9.736;2024-02-28T01:23:35;39.35;;;24.35;;
30647;SDS011;17683;53.360;9.736;2024-02-28T01:26:00;40.90;;;25.42;;
30647;SDS011;17683;53.360;9.736;2024-02-28T01:28:29;40.40;;;24.40;;
30647;SDS011;17683;53.360;9.736;2024-02-28T01:30:54;35.47;;;22.90;;
30647;SDS011;17683;53.360;9.736;2024-02-28T01:33:20;39.97;;;25.67;;
30647;SDS011;17683;53.360;9.736;2024-02-28T01:35:46;38.03;;;24.30;;
30647;SDS011;17683;53.360;9.736;2024-02-28T01:38:11;38.58;;;24.25;;
30647;SDS011;17683;53.360;9.736;2024-02-28T01:40:37;41.05;;;24.45;;
30647;SDS011;17683;53.360;9.736;2024-02-28T01:43:03;37.10;;;23.77;;
30647;SDS011;17683;53.360;9.736;2024-02-28T01:45:32;41.17;;;25.65;;
30647;SDS011;17683;53.360;9.736;2024-02-28T01:47:58;37.40;;;24.00;;
30647;SDS011;17683;53.360;9.736;2024-02-28T01:50:24;39.13;;;24.60;;
30647;SDS011;17683;53.360;9.736;2024-02-28T01:52:50;40.42;;;26.02;;
30647;SDS011;17683;53.360;9.736;2024-02-28T01:55:17;36.45;;;23.40;;
30647;SDS011;17683;53.360;9.736;2024-02-28T01:57:42;37.30;;;23.25;;
30647;SDS011;17683;53.360;9.736;2024-02-28T02:00:08;37.03;;;23.90;;
30647;SDS011;17683;53.360;9.736;2024-02-28T02:02:36;38.50;;;23.40;;
30647;SDS011;17683;53.360;9.736;2024-02-28T02:05:02;38.15;;;24.27;;
30647;SDS011;17683;53.360;9.736;2024-02-28T02:07:28;35.83;;;21.73;;
30647;SDS011;17683;53.360;9.736;2024-02-28T02:09:54;37.58;;;23.92;;
30647;SDS011;17683;53.360;9.736;2024-02-28T02:12:19;38.10;;;24.13;;
30647;SDS011;17683;53.360;9.736;2024-02-28T02:14:48;37.75;;;23.20;;
30647;SDS011;17683;53.360;9.736;2024-02-28T02:17:14;37.10;;;22.38;;
30647;SDS011;17683;53.360;9.736;2024-02-28T02:19:40;35.33;;;21.52;;
30647;SDS011;17683;53.360;9.736;2024-02-28T02:22:07;37.78;;;22.73;;
30647;SDS011;17683;53.360;9.736;2024-02-28T02:24:34;38.72;;;22.45;;
30647;SDS011;17683;53.360;9.736;2024-02-28T02:27:00;34.95;;;22.40;;
30647;SDS011;17683;53.360;9.736;2024-02-28T02:29:26;35.85;;;24.23;;
30647;SDS011;17683;53.360;9.736;2024-02-28T02:31:53;39.35;;;23.20;;
30647;SDS011;17683;53.360;9.736;2024-02-28T02:34:19;38.35;;;24.67;;
30647;SDS011;17683;53.360;9.736;2024-02-28T02:36:45;36.92;;;23.52;;
30647;SDS011;17683;53.360;9.736;2024-02-28T02:39:10;38.10;;;23.67;;
30647;SDS011;17683;53.360;9.736;2024-02-28T02:41:36;39.30;;;25.60;;
30647;SDS011;17683;53.360;9.736;2024-02-28T02:44:02;40.22;;;26.27;;
30647;SDS011;17683;53.360;9.736;2024-02-28T02:46:28;39.72;;;24.67;;
30647;SDS011;17683;53.360;9.736;2024-02-28T02:48:55;37.72;;;23.33;;
30647;SDS011;17683;53.360;9.736;2024-02-28T02:51:20;42.58;;;25.33;;
30647;SDS011;17683;53.360;9.736;2024-02-28T02:53:46;41.30;;;25.58;;
30647;SDS011;17683;53.360;9.736;2024-02-28T02:56:12;36.67;;;23.05;;
30647;SDS011;17683;53.360;9.736;2024-02-28T02:58:38;41.55;;;24.48;;
30647;SDS011;17683;53.360;9.736;2024-02-28T03:01:03;40.20;;;24.30;;
30647;SDS011;17683;53.360;9.736;2024-02-28T03:03:29;38.55;;;23.35;;
30647;SDS011;17683;53.360;9.736;2024-02-28T03:05:55;38.47;;;23.13;;
30647;SDS011;17683;53.360;9.736;2024-02-28T03:08:21;38.15;;;23.02;;
30647;SDS011;17683;53.360;9.736;2024-02-28T03:10:47;40.35;;;23.60;;
30647;SDS011;17683;53.360;9.736;2024-02-28T03:13:13;41.53;;;25.02;;
30647;SDS011;17683;53.360;9.736;2024-02-28T03:15:38;40.50;;;24.38;;
30647;SDS011;17683;53.360;9.736;2024-02-28T03:18:04;38.85;;;25.02;;
30647;SDS011;17683;53.360;9.736;2024-02-28T03:20:30;40.00;;;24.52;;
30647;SDS011;17683;53.360;9.736;2024-02-28T03:22:55;40.63;;;24.63;;
30647;SDS011;17683;53.360;9.736;2024-02-28T03:25:21;42.63;;;25.20;;
30647;SDS011;17683;53.360;9.736;2024-02-28T03:27:47;39.92;;;24.88;;
30647;SDS011;17683;53.360;9.736;2024-02-28T03:30:13;44.28;;;25.38;;
30647;SDS011;17683;53.360;9.736;2024-02-28T03:32:38;41.35;;;25.38;;
30647;SDS011;17683;53.360;9.736;2024-02-28T03:35:04;43.63;;;25.52;;
30647;SDS011;17683;53.360;9.736;2024-02-28T03:37:33;38.63;;;24.92;;
30647;SDS011;17683;53.360;9.736;2024-02-28T03:39:59;39.75;;;24.70;;
30647;SDS011;17683;53.360;9.736;2024-02-28T03:42:25;41.58;;;25.20;;
30647;SDS011;17683;53.360;9.736;2024-02-28T03:44:50;38.80;;;23.85;;
30647;SDS011;17683;53.360;9.736;2024-02-28T03:47:16;46.42;;;24.60;;
30647;SDS011;17683;53.360;9.736;2024-02-28T03:49:42;34.47;;;22.42;;
30647;SDS011;17683;53.360;9.736;2024-02-28T03:52:08;39.92;;;24.77;;
30647;SDS011;17683;53.360;9.736;2024-02-28T03:54:33;34.35;;;21.73;;
30647;SDS011;17683;53.360;9.736;2024-02-28T03:56:59;38.05;;;22.90;;
30647;SDS011;17683;53.360;9.736;2024-02-28T03:59:25;36.63;;;22.38;;
30647;SDS011;17683;53.360;9.736;2024-02-28T04:01:50;37.65;;;22.60;;
30647;SDS011;17683;53.360;9.736;2024-02-28T04:04:16;38.85;;;23.40;;
30647;SDS011;17683;53.360;9.736;2024-02-28T04:06:42;37.35;;;23.63;;
30647;SDS011;17683;53.360;9.736;2024-02-28T04:09:08;36.30;;;22.25;;
30647;SDS011;17683;53.360;9.736;2024-02-28T04:11:34;37.05;;;23.23;;
30647;SDS011;17683;53.360;9.736;2024-02-28T04:14:03;34.50;;;22.08;;
30647;SDS011;17683;53.360;9.736;2024-02-28T04:16:28;37.47;;;24.38;;
30647;SDS011;17683;53.360;9.736;2024-02-28T04:18:54;38.95;;;23.80;;
30647;SDS011;17683;53.360;9.736;2024-02-28T04:21:20;41.20;;;24.83;;
30647;SDS011;17683;53.360;9.736;2024-02-28T04:23:46;44.65;;;24.40;;
30647;SDS011;17683;53.360;9.736;2024-02-28T04:26:11;37.13;;;22.75;;
30647;SDS011;17683;53.360;9.736;2024-02-28T04:28:37;34.92;;;22.17;;
30647;SDS011;17683;53.360;9.736;2024-02-28T04:31:03;37.95;;;24.05;;
30647;SDS011;17683;53.360;9.736;2024-02-28T04:33:28;36.38;;;23.00;;
30647;SDS011;17683;53.360;9.736;2024-02-28T04:35:54;34.90;;;21.73;;
30647;SDS011;17683;53.360;9.736;2024-02-28T04:38:20;35.55;;;22.25;;
30647;SDS011;17683;53.360;9.736;2024-02-28T04:40:46;34.03;;;22.58;;
30647;SDS011;17683;53.360;9.736;2024-02-28T04:43:11;32.97;;;20.98;;
30647;SDS011;17683;53.360;9.736;2024-02-28T04:45:37;33.92;;;20.42;;
30647;SDS011;17683;53.360;9.736;2024-02-28T04:48:03;34.20;;;21.40;;
30647;SDS011;17683;53.360;9.736;2024-02-28T04:50:29;34.75;;;20.52;;
30647;SDS011;17683;53.360;9.736;2024-02-28T04:52:55;33.70;;;20.85;;
30647;SDS011;17683;53.360;9.736;2024-02-28T04:55:20;31.10;;;20.17;;
30647;SDS011;17683;53.360;9.736;2024-02-28T04:57:46;29.38;;;18.40;;
30647;SDS011;17683;53.360;9.736;2024-02-28T05:00:12;29.73;;;19.23;;
30647;SDS011;17683;53.360;9.736;2024-02-28T05:02:38;28.67;;;18.80;;
30647;SDS011;17683;53.360;9.736;2024-02-28T05:05:03;32.58;;;20.90;;
30647;SDS011;17683;53.360;9.736;2024-02-28T05:07:30;28.90;;;19.02;;
30647;SDS011;17683;53.360;9.736;2024-02-28T05:09:55;30.33;;;19.42;;
30647;SDS011;17683;53.360;9.736;2024-02-28T05:12:21;28.65;;;18.65;;
30647;SDS011;17683;53.360;9.736;2024-02-28T05:14:47;26.60;;;17.70;;
30647;SDS011;17683;53.360;9.736;2024-02-28T05:17:12;27.52;;;17.58;;
30647;SDS011;17683;53.360;9.736;2024-02-28T05:19:38;32.28;;;18.00;;
30647;SDS011;17683;53.360;9.736;2024-02-28T05:22:04;28.30;;;17.83;;
30647;SDS011;17683;53.360;9.736;2024-02-28T05:24:30;25.75;;;17.20;;
30647;SDS011;17683;53.360;9.736;2024-02-28T05:26:56;22.10;;;16.08;;
30647;SDS011;17683;53.360;9.736;2024-02-28T05:29:21;28.23;;;18.02;;
30647;SDS011;17683;53.360;9.736;2024-02-28T05:31:47;23.13;;;16.02;;
30647;SDS011;17683;53.360;9.736;2024-02-28T05:34:13;28.70;;;17.70;;
30647;SDS011;17683;53.360;9.736;2024-02-28T05:36:40;25.23;;;15.90;;
30647;SDS011;17683;53.360;9.736;2024-02-28T05:39:06;24.13;;;15.48;;
30647;SDS011;17683;53.360;9.736;2024-02-28T05:41:33;24.63;;;15.75;;
30647;SDS011;17683;53.360;9.736;2024-02-28T05:43:59;23.48;;;15.27;;
30647;SDS011;17683;53.360;9.736;2024-02-28T05:46:24;23.30;;;15.15;;
30647;SDS011;17683;53.360;9.736;2024-02-28T05:48:50;24.58;;;15.40;;
30647;SDS011;17683;53.360;9.736;2024-02-28T05:51:16;21.98;;;14.93;;
30647;SDS011;17683;53.360;9.736;2024-02-28T05:53:42;21.23;;;13.73;;
30647;SDS011;17683;53.360;9.736;2024-02-28T05:56:08;23.20;;;15.20;;
30647;SDS011;17683;53.360;9.736;2024-02-28T05:58:38;23.25;;;14.95;;
30647;SDS011;17683;53.360;9.736;2024-02-28T06:01:04;25.20;;;16.83;;
30647;SDS011;17683;53.360;9.736;2024-02-28T06:03:30;23.40;;;14.20;;
30647;SDS011;17683;53.360;9.736;2024-02-28T06:05:55;23.73;;;15.00;;
30647;SDS011;17683;53.360;9.736;2024-02-28T06:08:23;20.40;;;14.65;;
30647;SDS011;17683;53.360;9.736;2024-02-28T06:10:48;19.50;;;14.20;;
30647;SDS011;17683;53.360;9.736;2024-02-28T06:13:14;22.83;;;15.00;;
30647;SDS011;17683;53.360;9.736;2024-02-28T06:15:40;24.75;;;15.07;;
30647;SDS011;17683;53.360;9.736;2024-02-28T06:18:07;24.02;;;16.30;;
30647;SDS011;17683;53.360;9.736;2024-02-28T06:20:33;23.17;;;14.90;;
30647;SDS011;17683;53.360;9.736;2024-02-28T06:22:58;22.75;;;14.68;;
30647;SDS011;17683;53.360;9.736;2024-02-28T06:25:24;23.15;;;14.25;;
30647;SDS011;17683;53.360;9.736;2024-02-28T06:27:50;21.60;;;14.13;;
30647;SDS011;17683;53.360;9.736;2024-02-28T06:30:16;21.77;;;14.43;;
30647;SDS011;17683;53.360;9.736;2024-02-28T06:32:42;24.65;;;14.57;;
30647;SDS011;17683;53.360;9.736;2024-02-28T06:35:08;23.05;;;14.50;;
30647;SDS011;17683;53.360;9.736;2024-02-28T06:37:34;23.33;;;14.60;;
30647;SDS011;17683;53.360;9.736;2024-02-28T06:40:00;20.08;;;13.23;;
30647;SDS011;17683;53.360;9.736;2024-02-28T06:42:29;21.50;;;14.02;;
30647;SDS011;17683;53.360;9.736;2024-02-28T06:44:55;22.45;;;14.90;;
30647;SDS011;17683;53.360;9.736;2024-02-28T06:47:21;20.38;;;12.80;;
30647;SDS011;17683;53.360;9.736;2024-02-28T06:49:46;21.73;;;14.52;;
30647;SDS011;17683;53.360;9.736;2024-02-28T06:52:13;23.20;;;14.43;;
30647;SDS011;17683;53.360;9.736;2024-02-28T06:54:39;21.50;;;14.27;;
30647;SDS011;17683;53.360;9.736;2024-02-28T06:57:04;20.42;;;14.32;;
30647;SDS011;17683;53.360;9.736;2024-02-28T06:59:30;23.67;;;14.40;;
30647;SDS011;17683;53.360;9.736;2024-02-28T07:01:56;23.67;;;15.38;;
30647;SDS011;17683;53.360;9.736;2024-02-28T07:04:22;22.88;;;14.70;;
30647;SDS011;17683;53.360;9.736;2024-02-28T07:06:48;22.95;;;15.50;;
30647;SDS011;17683;53.360;9.736;2024-02-28T07:09:14;24.33;;;16.10;;
30647;SDS011;17683;53.360;9.736;2024-02-28T07:11:40;26.25;;;17.13;;
30647;SDS011;17683;53.360;9.736;2024-02-28T07:14:06;30.83;;;16.98;;
30647;SDS011;17683;53.360;9.736;2024-02-28T07:16:32;23.08;;;15.55;;
30647;SDS011;17683;53.360;9.736;2024-02-28T07:18:59;25.02;;;16.27;;
30647;SDS011;17683;53.360;9.736;2024-02-28T07:21:26;26.83;;;16.08;;
30647;SDS011;17683;53.360;9.736;2024-02-28T07:23:52;27.02;;;17.23;;
30647;SDS011;17683;53.360;9.736;2024-02-28T07:26:17;27.30;;;17.27;;
30647;SDS011;17683;53.360;9.736;2024-02-28T07:28:43;25.88;;;16.40;;
30647;SDS011;17683;53.360;9.736;2024-02-28T07:31:15;32.40;;;18.75;;
30647;SDS011;17683;53.360;9.736;2024-02-28T07:33:44;30.05;;;17.73;;
30647;SDS011;17683;53.360;9.736;2024-02-28T07:36:10;33.42;;;19.85;;
30647;SDS011;17683;53.360;9.736;2024-02-28T07:38:37;34.55;;;21.50;;
30647;SDS011;17683;53.360;9.736;2024-02-28T07:41:03;39.35;;;22.30;;
30647;SDS011;17683;53.360;9.736;2024-02-28T07:43:29;34.33;;;22.35;;
30647;SDS011;17683;53.360;9.736;2024-02-28T07:46:05;37.35;;;22.98;;
30647;SDS011;17683;53.360;9.736;2024-02-28T07:48:33;37.47;;;22.17;;
30647;SDS011;17683;53.360;9.736;2024-02-28T07:50:58;37.17;;;22.58;;
30647;SDS011;17683;53.360;9.736;2024-02-28T07:53:24;38.20;;;24.60;;
30647;SDS011;17683;53.360;9.736;2024-02-28T07:55:50;36.88;;;22.13;;
30647;SDS011;17683;53.360;9.736;2024-02-28T07:58:16;39.20;;;24.13;;
30647;SDS011;17683;53.360;9.736;2024-02-28T08:00:42;41.55;;;23.75;;
30647;SDS011;17683;53.360;9.736;2024-02-28T08:03:09;39.53;;;24.63;;
30647;SDS011;17683;53.360;9.736;2024-02-28T08:05:35;43.40;;;25.80;;
30647;SDS011;17683;53.360;9.736;2024-02-28T08:08:07;41.83;;;25.13;;
30647;SDS011;17683;53.360;9.736;2024-02-28T08:10:33;42.45;;;25.30;;
30647;SDS011;17683;53.360;9.736;2024-02-28T08:13:00;44.78;;;27.08;;
30647;SDS011;17683;53.360;9.736;2024-02-28T08:15:27;47.97;;;27.23;;
30647;SDS011;17683;53.360;9.736;2024-02-28T08:17:53;44.42;;;26.50;;
30647;SDS011;17683;53.360;9.736;2024-02-28T08:20:19;47.63;;;27.98;;
30647;SDS011;17683;53.360;9.736;2024-02-28T08:22:45;47.05;;;27.23;;
30647;SDS011;17683;53.360;9.736;2024-02-28T08:25:12;46.33;;;28.50;;
30647;SDS011;17683;53.360;9.736;2024-02-28T08:27:39;46.65;;;27.30;;
30647;SDS011;17683;53.360;9.736;2024-02-28T08:30:05;47.05;;;29.17;;
30647;SDS011;17683;53.360;9.736;2024-02-28T08:32:32;51.47;;;29.30;;
30647;SDS011;17683;53.360;9.736;2024-02-28T08:34:58;50.55;;;29.00;;
30647;SDS011;17683;53.360;9.736;2024-02-28T08:37:24;51.72;;;31.10;;
30647;SDS011;17683;53.360;9.736;2024-02-28T08:39:54;55.22;;;31.17;;
30647;SDS011;17683;53.360;9.736;2024-02-28T08:42:26;49.88;;;29.02;;
30647;SDS011;17683;53.360;9.736;2024-02-28T08:44:53;55.47;;;31.98;;
30647;SDS011;17683;53.360;9.736;2024-02-28T08:47:25;50.83;;;30.98;;
30647;SDS011;17683;53.360;9.736;2024-02-28T08:49:52;52.15;;;30.02;;
30647;SDS011;17683;53.360;9.736;2024-02-28T08:52:19;56.63;;;30.13;;
30647;SDS011;17683;53.360;9.736;2024-02-28T08:54:45;49.28;;;29.00;;
30647;SDS011;17683;53.360;9.736;2024-02-28T08:57:12;52.67;;;30.85;;
30647;SDS011;17683;53.360;9.736;2024-02-28T08:59:37;52.70;;;31.13;;
30647;SDS011;17683;53.360;9.736;2024-02-28T09:02:05;51.75;;;30.55;;
30647;SDS011;17683;53.360;9.736;2024-02-28T09:04:34;52.03;;;31.00;;
30647;SDS011;17683;53.360;9.736;2024-02-28T09:07:00;52.63;;;32.33;;
30647;SDS011;17683;53.360;9.736;2024-02-28T09:09:26;52.47;;;31.63;;
30647;SDS011;17683;53.360;9.736;2024-02-28T09:11:54;53.10;;;30.88;;
30647;SDS011;17683;53.360;9.736;2024-02-28T09:14:19;51.88;;;30.45;;
30647;SDS011;17683;53.360;9.736;2024-02-28T09:16:45;52.30;;;31.85;;
30647;SDS011;17683;53.360;9.736;2024-02-28T09:19:11;50.00;;;29.70;;
30647;SDS011;17683;53.360;9.736;2024-02-28T09:21:37;52.83;;;31.00;;
30647;SDS011;17683;53.360;9.736;2024-02-28T09:24:03;48.70;;;29.33;;
30647;SDS011;17683;53.360;9.736;2024-02-28T09:26:29;50.97;;;29.63;;
30647;SDS011;17683;53.360;9.736;2024-02-28T09:28:54;49.75;;;30.25;;
30647;SDS011;17683;53.360;9.736;2024-02-28T09:31:20;49.15;;;30.05;;
30647;SDS011;17683;53.360;9.736;2024-02-28T09:33:46;51.70;;;30.52;;
30647;SDS011;17683;53.360;9.736;2024-02-28T09:36:12;50.78;;;30.02;;
30647;SDS011;17683;53.360;9.736;2024-02-28T09:38:39;47.92;;;29.48;;
30647;SDS011;17683;53.360;9.736;2024-02-28T09:41:07;44.25;;;27.33;;
30647;SDS011;17683;53.360;9.736;2024-02-28T09:43:42;48.30;;;28.02;;
30647;SDS011;17683;53.360;9.736;2024-02-28T09:46:09;49.75;;;29.08;;
30647;SDS011;17683;53.360;9.736;2024-02-28T09:48:40;49.67;;;28.95;;
30647;SDS011;17683;53.360;9.736;2024-02-28T09:51:06;47.53;;;29.75;;
30647;SDS011;17683;53.360;9.736;2024-02-28T09:53:35;47.15;;;28.80;;
30647;SDS011;17683;53.360;9.736;2024-02-28T09:56:02;50.88;;;30.48;;
30647;SDS011;17683;53.360;9.736;2024-02-28T09:58:28;45.70;;;27.10;;
30647;SDS011;17683;53.360;9.736;2024-02-28T10:00:56;47.72;;;28.85;;
30647;SDS011;17683;53.360;9.736;2024-02-28T10:03:28;48.40;;;28.10;;
30647;SDS011;17683;53.360;9.736;2024-02-28T10:05:55;41.80;;;26.40;;
30647;SDS011;17683;53.360;9.736;2024-02-28T10:08:20;44.55;;;25.75;;
30647;SDS011;17683;53.360;9.736;2024-02-28T10:10:47;42.08;;;25.65;;
30647;SDS011;17683;53.360;9.736;2024-02-28T10:13:15;39.78;;;25.77;;
30647;SDS011;17683;53.360;9.736;2024-02-28T10:15:41;43.38;;;25.55;;
30647;SDS011;17683;53.360;9.736;2024-02-28T10:18:07;43.00;;;27.08;;
30647;SDS011;17683;53.360;9.736;2024-02-28T10:20:33;36.45;;;23.90;;
30647;SDS011;17683;53.360;9.736;2024-02-28T10:23:06;43.00;;;24.13;;
30647;SDS011;17683;53.360;9.736;2024-02-28T10:25:44;39.17;;;24.75;;
30647;SDS011;17683;53.360;9.736;2024-02-28T10:28:13;41.13;;;25.80;;
30647;SDS011;17683;53.360;9.736;2024-02-28T10:30:43;34.15;;;23.23;;
30647;SDS011;17683;53.360;9.736;2024-02-28T10:33:15;41.00;;;25.35;;
30647;SDS011;17683;53.360;9.736;2024-02-28T10:35:41;35.28;;;22.92;;
30647;SDS011;17683;53.360;9.736;2024-02-28T10:38:11;35.40;;;22.27;;
30647;SDS011;17683;53.360;9.736;2024-02-28T10:40:41;38.00;;;22.90;;
30647;SDS011;17683;53.360;9.736;2024-02-28T10:43:08;43.60;;;26.85;;
30647;SDS011;17683;53.360;9.736;2024-02-28T10:45:35;34.90;;;23.00;;
30647;SDS011;17683;53.360;9.736;2024-02-28T10:48:03;35.40;;;22.45;;
30647;SDS011;17683;53.360;9.736;2024-02-28T10:50:30;34.13;;;22.15;;
30647;SDS011;17683;53.360;9.736;2024-02-28T10:52:58;40.70;;;24.25;;
30647;SDS011;17683;53.360;9.736;2024-02-28T10:55:33;33.20;;;22.40;;
30647;SDS011;17683;53.360;9.736;2024-02-28T10:58:06;33.70;;;20.98;;
30647;SDS011;17683;53.360;9.736;2024-02-28T11:00:35;30.42;;;20.83;;
30647;SDS011;17683;53.360;9.736;2024-02-28T11:03:04;29.75;;;19.33;;
30647;SDS011;17683;53.360;9.736;2024-02-28T11:05:37;28.58;;;18.33;;
30647;SDS011;17683;53.360;9.736;2024-02-28T11:08:09;34.35;;;19.83;;
30647;SDS011;17683;53.360;9.736;2024-02-28T11:10:36;32.00;;;18.77;;
30647;SDS011;17683;53.360;9.736;2024-02-28T11:13:08;30.27;;;18.92;;
30647;SDS011;17683;53.360;9.736;2024-02-28T11:15:36;29.40;;;19.63;;
30647;SDS011;17683;53.360;9.736;2024-02-28T11:18:08;33.53;;;20.42;;
30647;SDS011;17683;53.360;9.736;2024-02-28T11:20:35;30.90;;;19.02;;
30647;SDS011;17683;53.360;9.736;2024-02-28T11:23:01;30.40;;;19.85;;
30647;SDS011;17683;53.360;9.736;2024-02-28T11:25:26;29.88;;;19.05;;
30647;SDS011;17683;53.360;9.736;2024-02-28T11:27:52;30.95;;;19.35;;
30647;SDS011;17683;53.360;9.736;2024-02-28T11:30:19;34.55;;;20.50;;
30647;SDS011;17683;53.360;9.736;2024-02-28T11:32:45;35.63;;;20.15;;
30647;SDS011;17683;53.360;9.736;2024-02-28T11:35:11;33.88;;;20.88;;
30647;SDS011;17683;53.360;9.736;2024-02-28T11:37:38;32.55;;;20.52;;
30647;SDS011;17683;53.360;9.736;2024-02-28T11:40:07;32.45;;;21.02;;
30647;SDS011;17683;53.360;9.736;2024-02-28T11:42:37;30.08;;;19.55;;
30647;SDS011;17683;53.360;9.736;2024-02-28T11:45:04;36.88;;;21.55;;
30647;SDS011;17683;53.360;9.736;2024-02-28T11:47:31;35.05;;;21.80;;
30647;SDS011;17683;53.360;9.736;2024-02-28T11:50:03;31.98;;;22.20;;
30647;SDS011;17683;53.360;9.736;2024-02-28T11:52:35;35.97;;;20.85;;
30647;SDS011;17683;53.360;9.736;2024-02-28T11:55:02;35.45;;;22.25;;
30647;SDS011;17683;53.360;9.736;2024-02-28T11:57:28;36.20;;;21.55;;
30647;SDS011;17683;53.360;9.736;2024-02-28T11:59:58;35.60;;;20.83;;
30647;SDS011;17683;53.360;9.736;2024-02-28T12:02:42;34.58;;;21.48;;
30647;SDS011;17683;53.360;9.736;2024-02-28T12:05:08;35.85;;;21.85;;
30647;SDS011;17683;53.360;9.736;2024-02-28T12:07:34;34.33;;;21.45;;
30647;SDS011;17683;53.360;9.736;2024-02-28T12:10:01;34.85;;;21.67;;
30647;SDS011;17683;53.360;9.736;2024-02-28T12:12:27;37.50;;;23.05;;
30647;SDS011;17683;53.360;9.736;2024-02-28T12:14:57;37.20;;;21.45;;
30647;SDS011;17683;53.360;9.736;2024-02-28T12:17:28;28.58;;;20.00;;
30647;SDS011;17683;53.360;9.736;2024-02-28T12:19:54;32.97;;;21.58;;
30647;SDS011;17683;53.360;9.736;2024-02-28T12:22:20;31.80;;;20.67;;
30647;SDS011;17683;53.360;9.736;2024-02-28T12:24:47;34.63;;;21.60;;
30647;SDS011;17683;53.360;9.736;2024-02-28T12:27:12;31.13;;;21.30;;
30647;SDS011;17683;53.360;9.736;2024-02-28T12:29:38;32.33;;;20.35;;
30647;SDS011;17683;53.360;9.736;2024-02-28T12:32:04;25.95;;;16.50;;
30647;SDS011;17683;53.360;9.736;2024-02-28T12:34:30;27.13;;;15.75;;
30647;SDS011;17683;53.360;9.736;2024-02-28T12:36:56;24.45;;;15.40;;
30647;SDS011;17683;53.360;9.736;2024-02-28T12:39:22;22.27;;;15.65;;
30647;SDS011;17683;53.360;9.736;2024-02-28T12:41:48;26.15;;;16.65;;
30647;SDS011;17683;53.360;9.736;2024-02-28T12:44:14;29.67;;;17.02;;
30647;SDS011;17683;53.360;9.736;2024-02-28T12:46:40;27.10;;;16.58;;
30647;SDS011;17683;53.360;9.736;2024-02-28T12:49:06;26.50;;;16.30;;
30647;SDS011;17683;53.360;9.736;2024-02-28T12:51:45;28.45;;;18.38;;
30647;SDS011;17683;53.360;9.736;2024-02-28T12:54:13;29.73;;;18.52;;
30647;SDS011;17683;53.360;9.736;2024-02-28T12:56:39;29.25;;;18.02;;
30647;SDS011;17683;53.360;9.736;2024-02-28T12:59:08;24.20;;;15.75;;
30647;SDS011;17683;53.360;9.736;2024-02-28T13:01:34;24.83;;;15.25;;
30647;SDS011;17683;53.360;9.736;2024-02-28T13:04:00;26.73;;;15.73;;
30647;SDS011;17683;53.360;9.736;2024-02-28T13:06:26;22.77;;;13.77;;
30647;SDS011;17683;53.360;9.736;2024-02-28T13:08:52;24.77;;;14.38;;
30647;SDS011;17683;53.360;9.736;2024-02-28T13:11:22;23.08;;;14.35;;
30647;SDS011;17683;53.360;9.736;2024-02-28T13:13:49;19.63;;;13.13;;
30647;SDS011;17683;53.360;9.736;2024-02-28T13:16:16;22.00;;;13.90;;
30647;SDS011;17683;53.360;9.736;2024-02-28T13:18:43;21.42;;;13.52;;
30647;SDS011;17683;53.360;9.736;2024-02-28T13:21:10;18.67;;;13.90;;
30647;SDS011;17683;53.360;9.736;2024-02-28T13:23:36;24.77;;;14.75;;
30647;SDS011;17683;53.360;9.736;2024-02-28T13:26:05;23.85;;;14.75;;
30647;SDS011;17683;53.360;9.736;2024-02-28T13:28:32;20.83;;;14.05;;
30647;SDS011;17683;53.360;9.736;2024-02-28T13:31:00;20.95;;;14.23;;
30647;SDS011;17683;53.360;9.736;2024-02-28T13:33:27;27.70;;;15.15;;
30647;SDS011;17683;53.360;9.736;2024-02-28T13:35:53;26.33;;;15.30;;
30647;SDS011;17683;53.360;9.736;2024-02-28T13:38:19;27.42;;;15.48;;
30647;SDS011;17683;53.360;9.736;2024-02-28T13:40:46;23.08;;;14.75;;
30647;SDS011;17683;53.360;9.736;2024-02-28T13:43:12;26.88;;;15.60;;
30647;SDS011;17683;53.360;9.736;2024-02-28T13:45:39;25.50;;;14.95;;
30647;SDS011;17683;53.360;9.736;2024-02-28T13:48:17;29.50;;;16.30;;
30647;SDS011;17683;53.360;9.736;2024-02-28T13:50:49;23.58;;;14.80;;
30647;SDS011;17683;53.360;9.736;2024-02-28T13:53:16;21.30;;;14.18;;
30647;SDS011;17683;53.360;9.736;2024-02-28T13:55:43;23.70;;;15.18;;
30647;SDS011;17683;53.360;9.736;2024-02-28T13:58:10;22.73;;;14.23;;
30647;SDS011;17683;53.360;9.736;2024-02-28T14:00:37;23.58;;;15.43;;
30647;SDS011;17683;53.360;9.736;2024-02-28T14:03:04;22.92;;;15.15;;
30647;SDS011;17683;53.360;9.736;2024-02-28T14:05:31;23.10;;;13.68;;
30647;SDS011;17683;53.360;9.736;2024-02-28T14:07:57;28.00;;;14.90;;
30647;SDS011;17683;53.360;9.736;2024-02-28T14:10:23;17.73;;;12.18;;
30647;SDS011;17683;53.360;9.736;2024-02-28T14:12:50;19.50;;;13.43;;
30647;SDS011;17683;53.360;9.736;2024-02-28T14:15:19;23.42;;;13.40;;
30647;SDS011;17683;53.360;9.736;2024-02-28T14:17:45;25.98;;;15.32;;